Time;durP1;ratioP1;P1;durP2;ratioP2;P2;SDS_P1;SDS_P2;PMS_P1;PMS_P2;Temp;Humidity;BMP_temperature;BMP_pressure;BME280_temperature;BME280_humidity;BME280_pressure;Samples;Min_cycle;Max_cycle;Signal;HPM_P1;HPM_P2
2023/10/09 00:01:12;;;;;;;4.70;1.02;;;22.60;99.90;;;;;;5041467;28;20195;-84
2023/10/09 00:03:45;;;;;;;2.30;1.05;;;22.70;99.90;;;;;;5053508;28;20205;-83
2023/10/09 00:06:17;;;;;;;2.88;1.02;;;22.80;99.90;;;;;;5052580;28;20220;-82
2023/10/09 00:08:53;;;;;;;5.15;1.10;;;22.70;99.90;;;;;;5055193;28;20202;-83
2023/10/09 00:11:29;;;;;;;2.60;1.05;;;22.70;99.90;;;;;;5048277;28;20243;-84
2023/10/09 00:14:00;;;;;;;3.28;1.10;;;22.90;99.90;;;;;;5050346;28;20722;-84
2023/10/09 00:16:40;;;;;;;1.67;0.80;;;22.90;99.90;;;;;;5054652;28;20215;-83
2023/10/09 00:19:21;;;;;;;2.80;0.82;;;22.90;99.90;;;;;;5053290;28;20258;-83
2023/10/09 00:21:55;;;;;;;3.42;0.85;;;22.90;99.90;;;;;;5053164;28;20692;-84
2023/10/09 00:24:28;;;;;;;3.08;1.00;;;23.00;99.90;;;;;;5052261;28;20193;-84
2023/10/09 00:27:11;;;;;;;4.28;1.00;;;23.10;99.90;;;;;;5052143;28;20227;-84
2023/10/09 00:29:45;;;;;;;4.05;0.82;;;23.10;99.90;;;;;;5052676;28;20200;-84
2023/10/09 00:32:22;;;;;;;4.25;0.90;;;23.20;99.90;;;;;;5052617;28;20668;-85
2023/10/09 00:34:58;;;;;;;3.22;0.80;;;23.30;99.90;;;;;;5051298;28;20306;-85
2023/10/09 00:37:33;;;;;;;3.35;0.82;;;23.10;99.90;;;;;;5050956;28;20200;-85
2023/10/09 00:40:20;;;;;;;3.22;0.90;;;23.20;99.90;;;;;;5053157;28;20224;-86
2023/10/09 00:42:55;;;;;;;5.00;0.70;;;23.30;99.90;;;;;;5034939;28;20201;-85
2023/10/09 00:45:32;;;;;;;4.57;0.80;;;23.40;99.90;;;;;;5034486;28;20660;-85
2023/10/09 00:48:06;;;;;;;3.63;0.85;;;23.40;99.90;;;;;;5051480;28;20234;-85
2023/10/09 00:50:39;;;;;;;5.47;0.93;;;23.50;99.90;;;;;;5050623;28;20212;-84
2023/10/09 00:53:13;;;;;;;3.08;0.90;;;23.70;99.90;;;;;;5034416;28;20224;-85
2023/10/09 00:55:55;;;;;;;3.97;0.70;;;23.80;99.90;;;;;;5068056;28;20199;-85
2023/10/09 00:58:31;;;;;;;4.20;0.85;;;23.70;99.90;;;;;;5053729;28;20204;-84
2023/10/09 01:01:04;;;;;;;2.78;0.63;;;23.60;99.90;;;;;;5052425;28;20192;-85
2023/10/09 01:03:40;;;;;;;3.70;0.90;;;23.70;99.90;;;;;;5052806;28;20200;-85
2023/10/09 01:06:20;;;;;;;3.05;0.80;;;23.70;99.90;;;;;;5053300;28;20207;-84
2023/10/09 01:09:09;;;;;;;3.08;0.65;;;23.80;99.90;;;;;;5051690;28;20267;-85
2023/10/09 01:12:02;;;;;;;3.25;0.80;;;23.80;99.90;;;;;;5051791;28;20678;-86
2023/10/09 01:14:36;;;;;;;1.80;0.60;;;24.00;99.90;;;;;;5051348;28;20208;-84
2023/10/09 01:17:29;;;;;;;1.52;0.68;;;24.20;99.90;;;;;;5051158;28;20200;-84
2023/10/09 01:20:04;;;;;;;2.72;0.85;;;24.30;99.90;;;;;;5051271;28;20200;-84
2023/10/09 01:22:35;;;;;;;4.15;0.80;;;24.50;99.90;;;;;;5051331;28;20204;-84
2023/10/09 01:25:09;;;;;;;4.05;0.95;;;24.70;99.90;;;;;;5051041;28;20266;-84
2023/10/09 01:27:44;;;;;;;2.75;0.70;;;24.70;99.90;;;;;;5053474;28;20231;-83
2023/10/09 01:30:18;;;;;;;2.55;0.90;;;24.70;99.90;;;;;;5062184;28;20239;-83
2023/10/09 01:32:50;;;;;;;2.95;0.90;;;24.80;99.90;;;;;;5051597;28;20273;-84
2023/10/09 01:35:23;;;;;;;1.40;0.70;;;24.80;99.90;;;;;;5050860;28;20200;-84
2023/10/09 01:37:56;;;;;;;4.63;0.80;;;24.80;99.90;;;;;;5051086;28;20204;-84
2023/10/09 01:40:37;;;;;;;3.15;0.80;;;24.90;99.90;;;;;;5051502;28;20196;-84
2023/10/09 01:43:09;;;;;;;4.05;0.75;;;24.90;99.90;;;;;;5050971;28;20697;-85
2023/10/09 01:45:46;;;;;;;4.78;0.82;;;25.10;99.90;;;;;;5051922;28;20212;-84
2023/10/09 01:48:23;;;;;;;3.63;0.88;;;25.10;99.90;;;;;;5051093;28;20311;-83
2023/10/09 01:50:55;;;;;;;3.05;1.00;;;25.20;99.90;;;;;;5050796;28;20211;-84
2023/10/09 01:53:30;;;;;;;4.32;0.90;;;25.30;99.90;;;;;;5050570;28;20205;-83
2023/10/09 01:56:15;;;;;;;2.75;0.95;;;25.30;99.90;;;;;;5051138;28;20254;-84
2023/10/09 01:58:50;;;;;;;3.60;0.88;;;25.40;99.90;;;;;;5052654;28;20196;-84
2023/10/09 02:01:21;;;;;;;5.25;0.95;;;25.40;99.90;;;;;;5057492;28;20212;-83
2023/10/09 02:03:54;;;;;;;3.20;0.93;;;25.40;99.50;;;;;;5068460;28;20606;-84
2023/10/09 02:06:32;;;;;;;3.75;0.90;;;25.40;99.80;;;;;;5070414;28;20212;-84
2023/10/09 02:09:06;;;;;;;2.90;0.80;;;25.30;99.90;;;;;;5054974;28;20231;-84
2023/10/09 02:11:45;;;;;;;3.90;0.90;;;25.50;99.80;;;;;;5054789;28;20208;-83
2023/10/09 02:14:21;;;;;;;1.60;0.60;;;25.50;99.90;;;;;;5054847;28;20571;-83
2023/10/09 02:19:40;;;;;;;2.97;0.88;;;25.50;99.90;;;;;;5054674;28;20286;-83
2023/10/09 02:22:14;;;;;;;5.45;0.98;;;25.50;99.90;;;;;;5054560;28;20208;-84
2023/10/09 02:24:57;;;;;;;3.20;0.80;;;25.50;99.70;;;;;;5054781;28;20196;-83
2023/10/09 02:27:53;;;;;;;3.42;0.77;;;25.40;99.60;;;;;;5056122;28;20266;-84
2023/10/09 02:30:29;;;;;;;5.75;0.95;;;25.40;99.90;;;;;;5054979;28;20196;-84
2023/10/09 02:33:06;;;;;;;6.13;0.80;;;25.50;99.70;;;;;;5054468;28;20248;-83
2023/10/09 02:35:42;;;;;;;3.22;0.80;;;25.50;99.90;;;;;;5053597;28;20210;-83
2023/10/09 02:38:14;;;;;;;5.93;1.20;;;25.50;99.90;;;;;;5055428;28;20220;-84
2023/10/09 02:43:44;;;;;;;2.40;0.70;;;25.70;99.60;;;;;;5054334;28;20189;-84
2023/10/09 02:46:20;;;;;;;5.55;1.00;;;25.80;99.10;;;;;;5053831;28;20280;-83
2023/10/09 02:48:52;;;;;;;3.35;0.77;;;25.80;98.00;;;;;;5057271;28;20276;-84
2023/10/09 02:51:41;;;;;;;3.65;0.75;;;25.70;98.10;;;;;;5055474;28;20235;-83
2023/10/09 02:54:34;;;;;;;2.15;0.73;;;25.70;96.10;;;;;;5054704;28;20208;-84
2023/10/09 02:57:15;;;;;;;4.28;0.90;;;25.80;96.00;;;;;;5076113;28;20207;-84
2023/10/09 02:59:51;;;;;;;2.03;0.73;;;25.70;94.90;;;;;;5077203;28;20570;-84
2023/10/09 03:02:24;;;;;;;2.80;0.80;;;25.70;94.80;;;;;;5058593;28;20236;-83
2023/10/09 03:04:56;;;;;;;2.28;0.73;;;25.90;95.00;;;;;;5060326;28;20346;-84
2023/10/09 03:07:29;;;;;;;3.80;0.90;;;26.10;94.20;;;;;;5057422;28;20274;-84
2023/10/09 03:10:01;;;;;;;3.90;1.05;;;26.30;93.50;;;;;;5056138;28;20262;-82
2023/10/09 03:12:32;;;;;;;3.90;0.90;;;26.40;93.20;;;;;;5054903;28;20722;-84
2023/10/09 03:15:08;;;;;;;3.47;1.02;;;26.40;93.30;;;;;;5052326;28;20204;-84
2023/10/09 03:17:42;;;;;;;2.10;0.90;;;26.40;92.70;;;;;;5053825;28;20204;-84
2023/10/09 03:20:14;;;;;;;4.68;0.90;;;26.20;93.50;;;;;;5054293;28;20208;-84
2023/10/09 03:22:48;;;;;;;2.70;0.70;;;26.30;94.00;;;;;;5055197;28;20200;-83
2023/10/09 03:25:20;;;;;;;3.72;0.93;;;26.50;94.00;;;;;;5055503;28;20280;-83
2023/10/09 03:27:56;;;;;;;5.78;1.10;;;26.40;93.30;;;;;;5059632;28;20224;-83
2023/10/09 03:30:32;;;;;;;3.70;0.80;;;26.30;94.10;;;;;;5075079;28;20203;-83
2023/10/09 03:33:04;;;;;;;4.78;0.77;;;26.30;94.40;;;;;;5075338;28;20203;-84
2023/10/09 03:35:36;;;;;;;5.70;0.88;;;26.50;93.60;;;;;;5054718;28;20292;-83
2023/10/09 03:38:13;;;;;;;2.47;0.80;;;26.40;93.20;;;;;;5053365;28;20205;-82
2023/10/09 03:40:47;;;;;;;2.72;0.80;;;26.50;92.30;;;;;;5053327;28;20211;-83
2023/10/09 03:43:19;;;;;;;2.95;0.90;;;26.50;91.90;;;;;;5055652;28;20226;-83
2023/10/09 03:45:54;;;;;;;2.40;0.70;;;26.50;91.20;;;;;;5067902;28;20207;-84
2023/10/09 03:48:32;;;;;;;2.97;0.68;;;26.50;92.00;;;;;;5074391;28;20219;-82
2023/10/09 03:51:12;;;;;;;3.90;1.00;;;26.50;92.40;;;;;;5062882;28;20250;-83
2023/10/09 03:53:43;;;;;;;4.85;1.10;;;26.60;92.00;;;;;;5055190;28;20614;-84
2023/10/09 03:56:17;;;;;;;3.67;0.70;;;26.60;92.10;;;;;;5056805;28;20292;-83
2023/10/09 03:58:52;;;;;;;2.33;0.80;;;26.40;92.00;;;;;;5057435;28;20205;-83
2023/10/09 04:01:28;;;;;;;2.60;0.75;;;26.50;91.80;;;;;;5060168;28;20326;-83
2023/10/09 04:04:01;;;;;;;7.07;1.23;;;26.30;92.00;;;;;;5058666;28;20666;-83
2023/10/09 04:06:34;;;;;;;1.92;0.68;;;26.20;92.30;;;;;;5057674;28;20209;-83
2023/10/09 04:09:26;;;;;;;3.58;0.70;;;26.10;93.00;;;;;;5035611;28;20707;-83
2023/10/09 04:14:50;;;;;;;5.38;0.93;;;26.20;92.70;;;;;;5035809;28;20197;-83
2023/10/09 04:17:42;;;;;;;2.22;0.70;;;26.20;92.20;;;;;;5036306;28;20251;-83
2023/10/09 04:20:51;;;;;;;3.10;0.85;;;26.30;91.60;;;;;;5051050;28;20299;-83
2023/10/09 04:23:34;;;;;;;4.88;0.80;;;26.00;91.60;;;;;;5052670;28;20228;-82
2023/10/09 04:26:14;;;;;;;6.32;0.90;;;25.90;91.90;;;;;;5055826;28;20570;-85
2023/10/09 04:28:51;;;;;;;4.88;0.80;;;26.00;92.10;;;;;;5053908;28;20224;-84
2023/10/09 04:31:31;;;;;;;6.38;0.93;;;25.90;91.80;;;;;;5053790;28;20274;-84
2023/10/09 04:36:56;;;;;;;3.63;1.08;;;25.80;93.40;;;;;;5067021;28;20214;-83
2023/10/09 04:42:38;;;;;;;3.50;1.13;;;25.60;94.60;;;;;;5070744;28;20207;-84
2023/10/09 04:45:59;;;;;;;6.05;1.27;;;25.30;94.60;;;;;;5052197;28;20205;-83
2023/10/09 04:48:32;;;;;;;5.43;1.00;;;25.50;94.70;;;;;;5052571;28;20236;-84
2023/10/09 04:51:34;;;;;;;4.68;0.85;;;25.50;93.40;;;;;;5051883;28;20204;-83
2023/10/09 04:54:14;;;;;;;2.03;0.80;;;25.50;92.70;;;;;;5053176;28;20278;-83
2023/10/09 04:56:54;;;;;;;5.50;1.02;;;25.50;92.60;;;;;;5052250;28;20196;-84
2023/10/09 04:59:27;;;;;;;3.30;1.00;;;25.70;92.40;;;;;;5051802;28;20249;-84
2023/10/09 05:02:04;;;;;;;4.78;0.90;;;25.70;93.50;;;;;;5052639;28;20201;-83
2023/10/09 05:04:41;;;;;;;4.63;1.02;;;25.90;93.20;;;;;;5053886;28;20389;-83
2023/10/09 05:07:50;;;;;;;2.50;0.75;;;26.00;92.80;;;;;;5055165;28;20671;-83
2023/10/09 05:10:19;;;;;;;4.13;0.93;;;26.10;91.10;;;;;;5061516;28;20203;-83
2023/10/09 05:12:56;;;;;;;2.35;0.80;;;26.20;91.10;;;;;;5071161;28;20232;-84
2023/10/09 05:15:29;;;;;;;2.80;0.90;;;26.40;90.30;;;;;;5071778;28;20204;-83
2023/10/09 05:18:09;;;;;;;5.63;1.08;;;26.40;88.00;;;;;;5054083;28;20204;-84
2023/10/09 05:23:44;;;;;;;3.95;0.90;;;26.80;86.20;;;;;;5046247;28;20188;-84
2023/10/09 05:26:37;;;;;;;4.63;0.95;;;27.10;85.40;;;;;;5051720;28;20614;-83
2023/10/09 05:29:19;;;;;;;2.83;0.90;;;27.20;83.80;;;;;;5031152;28;20741;-84
2023/10/09 05:31:57;;;;;;;3.72;0.90;;;27.30;82.50;;;;;;5046358;28;20308;-84
2023/10/09 05:34:33;;;;;;;3.72;0.93;;;27.60;79.50;;;;;;5051287;28;20239;-83
2023/10/09 05:37:17;;;;;;;2.67;0.75;;;27.70;75.50;;;;;;5050458;28;20193;-83
2023/10/09 05:40:22;;;;;;;4.38;0.80;;;27.80;75.20;;;;;;5049081;28;20656;-83
2023/10/09 05:42:59;;;;;;;3.28;0.90;;;27.90;73.10;;;;;;5051213;28;20224;-83
2023/10/09 05:54:29;;;;;;;4.22;0.82;;;28.50;71.40;;;;;;5025267;28;20254;-83
2023/10/09 05:58:36;;;;;;;5.60;1.00;;;28.40;70.10;;;;;;5050701;28;20283;-83
2023/10/09 06:06:01;;;;;;;4.03;0.90;;;28.70;69.30;;;;;;5062447;28;20690;-83
2023/10/09 06:14:12;;;;;;;2.00;0.73;;;28.70;68.60;;;;;;5052712;28;20286;-83
2023/10/09 06:16:59;;;;;;;2.28;0.77;;;29.00;69.60;;;;;;5050774;28;20684;-87
2023/10/09 06:19:31;;;;;;;1.75;0.80;;;28.90;70.50;;;;;;5042464;28;20559;-84
2023/10/09 06:24:57;;;;;;;1.88;0.60;;;29.50;68.00;;;;;;5030216;28;20196;-85
2023/10/09 06:27:56;;;;;;;2.42;0.63;;;29.40;67.60;;;;;;5042661;28;20618;-83
2023/10/09 06:30:27;;;;;;;2.47;0.70;;;29.60;66.40;;;;;;5045384;28;20317;-83
2023/10/09 06:33:04;;;;;;;3.38;0.70;;;29.70;66.40;;;;;;5050092;28;20200;-83
2023/10/09 06:35:48;;;;;;;2.08;0.57;;;29.30;66.40;;;;;;5051397;28;20246;-83
2023/10/09 06:38:23;;;;;;;2.70;0.60;;;29.40;64.60;;;;;;5051233;28;20656;-83
2023/10/09 06:43:47;;;;;;;2.55;0.70;;;29.90;62.30;;;;;;5039329;28;20196;-83
2023/10/09 06:51:55;;;;;;;3.95;1.02;;;29.60;63.80;;;;;;5040961;28;20200;-85
2023/10/09 06:54:27;;;;;;;2.30;0.63;;;29.20;64.50;;;;;;5052988;28;20201;-86
2023/10/09 06:57:18;;;;;;;4.15;0.77;;;29.20;63.50;;;;;;5054287;28;20197;-85
2023/10/09 07:02:45;;;;;;;3.20;0.80;;;29.00;65.00;;;;;;5034092;28;20239;-85
2023/10/09 07:05:17;;;;;;;2.00;0.77;;;28.90;64.60;;;;;;5041321;28;20189;-86
2023/10/09 07:08:28;;;;;;;3.55;0.95;;;28.50;66.00;;;;;;5055500;28;20334;-85
2023/10/09 07:11:02;;;;;;;4.25;0.82;;;28.40;66.20;;;;;;5055871;28;20200;-85
2023/10/09 07:13:36;;;;;;;2.33;0.80;;;28.40;66.10;;;;;;5060881;28;20287;-84
2023/10/09 07:19:09;;;;;;;5.00;1.02;;;27.70;67.80;;;;;;5056469;28;20195;-84
2023/10/09 07:21:51;;;;;;;4.47;0.85;;;27.40;69.10;;;;;;5054528;28;20189;-83
2023/10/09 07:24:24;;;;;;;3.58;1.00;;;26.50;72.60;;;;;;5052710;28;20189;-85
2023/10/09 07:26:56;;;;;;;4.10;1.10;;;26.00;75.60;;;;;;5054471;28;20655;-85
2023/10/09 07:29:27;;;;;;;2.53;0.82;;;25.40;79.00;;;;;;5053805;28;20612;-84
2023/10/09 07:32:12;;;;;;;2.70;1.00;;;25.00;81.90;;;;;;5053321;28;20192;-85
2023/10/09 07:34:58;;;;;;;2.90;1.30;;;24.60;86.00;;;;;;5052770;28;20210;-86
2023/10/09 07:37:31;;;;;;;6.22;1.63;;;24.30;88.80;;;;;;5051861;28;20199;-87
2023/10/09 07:40:07;;;;;;;5.30;1.30;;;23.90;91.10;;;;;;5054182;28;20725;-86
2023/10/09 07:42:44;;;;;;;9.93;2.20;;;23.90;92.30;;;;;;5055098;28;20647;-85
2023/10/09 07:46:29;;;;;;;8.93;1.40;;;23.70;93.30;;;;;;5053955;28;20228;-85
2023/10/09 07:48:05;;;;;;;6.28;1.45;;;23.60;93.30;;;;;;5054651;28;20201;-84
2023/10/09 07:50:48;;;;;;;9.13;1.48;;;23.40;93.10;;;;;;5054067;28;20713;-85
2023/10/09 07:53:25;;;;;;;3.72;1.20;;;23.30;93.70;;;;;;5054407;28;20192;-86
2023/10/09 07:55:58;;;;;;;4.53;1.20;;;23.10;94.20;;;;;;5054173;28;20294;-87
2023/10/09 07:58:30;;;;;;;4.53;0.85;;;23.00;95.40;;;;;;5053862;28;20208;-85
2023/10/09 08:01:15;;;;;;;4.82;1.10;;;22.90;97.40;;;;;;5052399;28;20204;-85
2023/10/09 08:03:57;;;;;;;3.92;1.00;;;22.70;99.40;;;;;;5053246;28;20192;-84
2023/10/09 08:06:44;;;;;;;4.20;1.15;;;22.60;99.90;;;;;;5047239;28;20243;-84
2023/10/09 08:09:45;;;;;;;4.57;0.98;;;22.40;99.90;;;;;;5033786;28;20231;-85
2023/10/09 08:12:39;;;;;;;5.30;1.27;;;22.30;99.90;;;;;;5041115;28;20294;-83
2023/10/09 08:15:25;;;;;;;5.10;1.10;;;22.10;99.90;;;;;;5057185;28;20200;-85
2023/10/09 08:17:58;;;;;;;3.10;1.00;;;22.00;99.90;;;;;;5059936;28;20215;-82
2023/10/09 08:20:36;;;;;;;5.47;1.20;;;22.00;99.90;;;;;;5039860;28;20190;-83
2023/10/09 08:23:22;;;;;;;7.63;1.17;;;22.00;99.90;;;;;;5050178;28;20200;-86
2023/10/09 08:26:12;;;;;;;2.88;1.10;;;21.90;99.90;;;;;;5052210;28;20192;-85
2023/10/09 08:28:43;;;;;;;3.50;1.25;;;21.80;99.90;;;;;;5051215;28;20189;-84
2023/10/09 08:31:19;;;;;;;4.28;1.20;;;21.80;99.90;;;;;;5036564;28;20201;-85
2023/10/09 08:33:56;;;;;;;4.22;1.20;;;21.70;99.90;;;;;;5039639;28;20242;-85
2023/10/09 08:36:28;;;;;;;5.82;1.35;;;21.70;99.90;;;;;;5049290;28;20211;-84
2023/10/09 08:39:14;;;;;;;8.18;1.50;;;21.80;99.90;;;;;;5043549;28;20229;-86
2023/10/09 08:41:44;;;;;;;2.22;0.88;;;21.70;99.90;;;;;;5032624;28;20224;-85
2023/10/09 08:44:17;;;;;;;4.97;1.08;;;21.60;99.90;;;;;;5032965;28;20700;-84
2023/10/09 08:46:48;;;;;;;4.20;1.20;;;21.60;99.90;;;;;;5042113;28;20193;-85
2023/10/09 08:49:21;;;;;;;5.65;1.58;;;21.50;99.90;;;;;;5037485;28;20225;-84
2023/10/09 08:51:52;;;;;;;5.72;1.10;;;21.50;99.90;;;;;;5047415;28;20244;-87
2023/10/09 08:54:25;;;;;;;2.55;0.90;;;21.50;99.90;;;;;;5052556;28;20196;-85
2023/10/09 08:57:01;;;;;;;4.32;0.90;;;21.40;99.90;;;;;;5050639;28;20291;-84
2023/10/09 08:59:32;;;;;;;2.67;0.90;;;21.30;99.90;;;;;;5047191;28;20262;-84
2023/10/09 09:02:03;;;;;;;3.92;1.00;;;21.40;99.90;;;;;;5049124;28;20284;-84
2023/10/09 09:04:45;;;;;;;4.32;1.02;;;21.30;99.90;;;;;;5053619;28;20199;-84
2023/10/09 09:07:39;;;;;;;4.93;1.10;;;21.30;99.90;;;;;;5053811;28;20200;-86
2023/10/09 09:10:21;;;;;;;3.75;0.80;;;21.30;99.90;;;;;;5033026;28;20291;-86
2023/10/09 09:12:53;;;;;;;6.18;1.10;;;21.30;99.90;;;;;;5050057;28;20240;-86
2023/10/09 09:15:26;;;;;;;5.00;1.10;;;21.20;99.90;;;;;;5056494;28;20204;-84
2023/10/09 09:18:10;;;;;;;2.45;0.80;;;21.20;99.90;;;;;;5065371;28;20278;-85
2023/10/09 09:20:45;;;;;;;4.13;1.10;;;21.20;99.90;;;;;;5046710;28;20224;-84
2023/10/09 09:23:16;;;;;;;5.75;1.00;;;21.10;99.90;;;;;;5051219;28;20647;-86
2023/10/09 09:25:58;;;;;;;3.85;0.70;;;21.00;99.90;;;;;;5046509;28;20654;-86
2023/10/09 09:28:38;;;;;;;2.90;0.85;;;21.00;99.90;;;;;;5032074;28;20201;-86
2023/10/09 09:31:14;;;;;;;6.57;0.90;;;21.00;99.90;;;;;;5045116;28;20193;-86
2023/10/09 09:33:48;;;;;;;4.50;1.05;;;21.00;99.90;;;;;;5040056;28;20196;-85
2023/10/09 09:36:20;;;;;;;2.75;0.75;;;20.90;99.90;;;;;;5048540;28;20197;-85
2023/10/09 09:38:52;;;;;;;2.05;0.60;;;20.90;99.90;;;;;;5052498;28;20269;-86
2023/10/09 09:41:26;;;;;;;3.65;0.80;;;20.90;99.90;;;;;;5052552;28;20682;-84
2023/10/09 09:44:00;;;;;;;2.95;0.80;;;20.90;99.90;;;;;;5051399;28;20196;-85
2023/10/09 09:46:34;;;;;;;4.55;0.80;;;20.80;99.90;;;;;;5050912;28;20232;-84
2023/10/09 09:49:16;;;;;;;6.47;0.90;;;20.90;99.90;;;;;;5047419;28;20200;-84
2023/10/09 09:52:09;;;;;;;3.15;0.90;;;20.80;99.90;;;;;;5055409;28;20263;-85
2023/10/09 09:54:43;;;;;;;4.75;0.88;;;20.80;99.90;;;;;;5042768;28;20221;-87
2023/10/09 09:57:25;;;;;;;2.85;0.77;;;20.70;99.90;;;;;;5036971;28;20585;-83
2023/10/09 10:00:04;;;;;;;4.13;0.90;;;20.70;99.90;;;;;;5049407;28;20219;-88
2023/10/09 10:02:40;;;;;;;3.40;0.90;;;20.60;99.90;;;;;;5054648;28;20192;-84
2023/10/09 10:05:15;;;;;;;3.95;0.90;;;20.50;99.90;;;;;;5045614;28;20254;-84
2023/10/09 10:07:49;;;;;;;5.18;1.30;;;20.60;99.90;;;;;;5052563;28;20192;-85
2023/10/09 10:10:47;;;;;;;3.80;0.90;;;20.60;99.90;;;;;;5054526;28;20259;-90
2023/10/09 10:13:41;;;;;;;3.78;0.77;;;20.60;99.90;;;;;;5038388;28;20291;-84
2023/10/09 10:16:19;;;;;;;5.22;1.23;;;20.60;99.90;;;;;;5057717;28;20219;-85
2023/10/09 10:19:00;;;;;;;4.50;1.00;;;20.60;99.90;;;;;;5061438;28;20203;-84
2023/10/09 10:21:41;;;;;;;5.28;1.02;;;20.60;99.90;;;;;;5055596;28;20537;-86
2023/10/09 10:24:54;;;;;;;8.75;1.13;;;20.60;99.90;;;;;;5054777;28;20596;-85
2023/10/09 10:27:32;;;;;;;5.15;0.70;;;20.60;99.90;;;;;;5059223;28;20204;-88
2023/10/09 10:30:50;;;;;;;3.42;0.70;;;20.50;99.90;;;;;;5059433;28;20224;-86
2023/10/09 10:33:22;;;;;;;3.15;0.60;;;20.50;99.90;;;;;;5058878;28;20205;-85
2023/10/09 10:35:55;;;;;;;4.82;1.10;;;20.50;99.90;;;;;;5058950;28;20185;-86
2023/10/09 10:38:42;;;;;;;2.88;0.73;;;20.50;99.90;;;;;;5058677;28;20607;-87
2023/10/09 10:41:22;;;;;;;3.25;0.82;;;20.50;99.90;;;;;;5039284;28;20201;-87
2023/10/09 10:44:33;;;;;;;2.50;0.82;;;20.40;99.90;;;;;;5053048;28;20200;-86
2023/10/09 10:46:55;;;;;;;3.53;0.82;;;20.40;99.90;;;;;;5036516;28;20712;-86
2023/10/09 10:49:36;;;;;;;2.58;0.68;;;20.40;99.90;;;;;;5047141;28;20650;-86
2023/10/09 10:52:18;;;;;;;3.05;0.90;;;20.40;99.90;;;;;;5074680;28;20202;-86
2023/10/09 10:55:05;;;;;;;3.08;0.80;;;20.50;99.90;;;;;;5070232;28;20220;-86
2023/10/09 10:57:53;;;;;;;4.90;1.38;;;20.40;99.90;;;;;;5062817;28;20207;-85
2023/10/09 11:03:29;;;;;;;2.95;0.90;;;20.40;99.90;;;;;;5049288;28;20204;-86
2023/10/09 11:06:13;;;;;;;3.85;0.80;;;20.40;99.90;;;;;;5038054;28;20221;-85
2023/10/09 11:08:54;;;;;;;6.10;1.67;;;20.40;99.90;;;;;;5041448;28;20220;-85
2023/10/09 11:11:32;;;;;;;6.13;2.80;;;20.30;99.90;;;;;;5051056;28;20581;-86
2023/10/09 11:14:14;;;;;;;4.13;1.60;;;20.30;99.90;;;;;;5037779;28;20225;-86
2023/10/09 11:16:47;;;;;;;4.93;1.50;;;20.30;99.90;;;;;;5036659;28;20285;-84
2023/10/09 11:22:36;;;;;;;4.63;1.02;;;20.20;99.90;;;;;;5041560;28;20227;-84
2023/10/09 11:25:11;;;;;;;2.05;1.00;;;20.20;99.90;;;;;;5046653;28;20202;-86
2023/10/09 11:27:50;;;;;;;3.72;1.20;;;20.20;99.90;;;;;;5057385;28;20216;-85
2023/10/09 11:30:29;;;;;;;2.15;0.68;;;20.10;99.90;;;;;;5055317;28;20220;-86
2023/10/09 11:33:14;;;;;;;4.32;1.10;;;20.10;99.90;;;;;;5057718;28;20200;-86
2023/10/09 11:36:00;;;;;;;5.95;1.02;;;20.10;99.90;;;;;;5055129;28;20197;-84
2023/10/09 11:38:45;;;;;;;4.55;1.00;;;20.10;99.90;;;;;;5055489;28;20212;-85
2023/10/09 11:41:24;;;;;;;2.50;0.90;;;20.00;99.90;;;;;;5050502;28;20202;-85
2023/10/09 11:43:54;;;;;;;3.38;0.90;;;20.10;99.90;;;;;;5036997;28;20256;-84
2023/10/09 11:46:50;;;;;;;1.30;0.80;;;20.00;99.90;;;;;;5046707;28;20279;-85
2023/10/09 11:49:44;;;;;;;2.63;1.00;;;20.00;99.90;;;;;;5053513;28;20200;-83
2023/10/09 11:52:38;;;;;;;2.10;0.80;;;20.00;99.90;;;;;;5050307;28;20215;-84
2023/10/09 11:55:08;;;;;;;2.65;0.80;;;20.00;99.90;;;;;;5053957;28;20200;-85
2023/10/09 11:57:39;;;;;;;6.38;1.20;;;20.00;99.90;;;;;;5052871;28;20596;-85
2023/10/09 12:00:25;;;;;;;5.55;1.10;;;19.90;99.90;;;;;;5063068;28;20228;-84
2023/10/09 12:02:56;;;;;;;2.63;0.90;;;19.90;99.90;;;;;;5062891;28;20231;-85
2023/10/09 12:05:27;;;;;;;6.03;1.40;;;19.90;99.90;;;;;;5046444;28;20197;-84
2023/10/09 12:08:01;;;;;;;2.90;0.90;;;19.90;99.90;;;;;;5056277;28;20201;-83
2023/10/09 12:10:33;;;;;;;5.05;0.85;;;19.90;99.90;;;;;;5055011;28;20219;-83
2023/10/09 12:13:04;;;;;;;2.85;0.80;;;19.90;99.90;;;;;;5052356;28;20238;-87
2023/10/09 12:15:38;;;;;;;4.40;0.95;;;19.90;99.90;;;;;;5053434;28;20603;-86
2023/10/09 12:18:18;;;;;;;2.78;0.95;;;19.90;99.90;;;;;;5058428;28;20652;-83
2023/10/09 12:20:52;;;;;;;3.45;0.93;;;19.90;99.90;;;;;;5068244;28;20200;-85
2023/10/09 12:23:27;;;;;;;2.53;1.00;;;19.90;99.90;;;;;;5056685;28;20196;-86
2023/10/09 12:25:58;;;;;;;4.07;1.00;;;19.90;99.90;;;;;;5052854;28;20288;-87
2023/10/09 12:28:30;;;;;;;3.40;1.00;;;19.90;99.90;;;;;;5052619;28;20189;-85
2023/10/09 12:31:03;;;;;;;3.33;0.98;;;19.90;99.90;;;;;;5050466;28;20231;-85
2023/10/09 12:33:39;;;;;;;3.92;1.20;;;19.90;99.90;;;;;;5053511;28;20205;-85
2023/10/09 12:36:19;;;;;;;6.32;1.15;;;19.80;99.90;;;;;;5050106;28;20564;-84
2023/10/09 12:38:58;;;;;;;4.40;1.45;;;19.80;99.90;;;;;;5052629;28;20564;-83
2023/10/09 12:41:33;;;;;;;3.90;1.08;;;19.80;99.90;;;;;;5054175;28;20695;-84
2023/10/09 12:44:04;;;;;;;5.70;1.20;;;19.70;99.90;;;;;;5052151;28;20218;-85
2023/10/09 12:46:37;;;;;;;3.08;1.20;;;19.70;99.90;;;;;;5052749;28;20197;-84
2023/10/09 12:49:08;;;;;;;4.32;1.27;;;19.70;99.90;;;;;;5050168;28;20235;-85
2023/10/09 12:51:40;;;;;;;4.75;1.30;;;19.70;99.90;;;;;;5031919;28;20228;-85
2023/10/09 12:54:14;;;;;;;4.78;1.45;;;19.70;99.90;;;;;;5035744;28;20199;-85
2023/10/09 12:56:48;;;;;;;3.75;1.42;;;19.70;99.90;;;;;;5038181;28;20192;-85
2023/10/09 12:59:20;;;;;;;7.32;1.70;;;19.70;99.90;;;;;;5034222;28;20204;-84
2023/10/09 13:01:52;;;;;;;4.97;1.55;;;19.70;99.90;;;;;;5032513;28;20189;-86
2023/10/09 13:04:24;;;;;;;10.30;1.98;;;19.70;99.90;;;;;;5032392;28;20239;-86
2023/10/09 13:07:03;;;;;;;6.30;2.00;;;19.70;99.90;;;;;;5062075;28;20200;-85
2023/10/09 13:09:42;;;;;;;9.07;2.13;;;19.70;99.90;;;;;;5075074;28;20206;-85
2023/10/09 13:12:17;;;;;;;6.65;1.80;;;19.70;99.90;;;;;;5061170;28;20275;-85
2023/10/09 13:14:49;;;;;;;8.65;1.42;;;19.70;99.90;;;;;;5051750;28;20200;-86
2023/10/09 13:17:21;;;;;;;6.32;1.60;;;19.70;99.90;;;;;;5051298;28;20215;-86
2023/10/09 13:19:52;;;;;;;9.98;1.60;;;19.70;99.90;;;;;;5055014;28;20212;-85
2023/10/09 13:22:23;;;;;;;4.90;1.42;;;19.70;99.90;;;;;;5067018;28;20261;-86
2023/10/09 13:25:03;;;;;;;7.68;1.63;;;19.60;99.90;;;;;;5054420;28;20288;-86
2023/10/09 13:27:34;;;;;;;6.53;1.70;;;19.60;99.90;;;;;;5051756;28;20533;-84
2023/10/09 13:30:08;;;;;;;6.28;1.67;;;19.50;99.90;;;;;;5050320;28;20205;-85
2023/10/09 13:32:43;;;;;;;5.82;1.58;;;19.50;99.90;;;;;;5052209;28;20223;-84
2023/10/09 13:35:14;;;;;;;5.65;1.60;;;19.40;99.90;;;;;;5046816;28;20662;-84
2023/10/09 13:37:53;;;;;;;3.75;1.60;;;19.40;99.90;;;;;;5039008;28;20201;-86
2023/10/09 13:40:28;;;;;;;6.50;1.77;;;19.30;99.90;;;;;;5050710;28;20193;-85
2023/10/09 13:42:59;;;;;;;6.43;1.45;;;19.30;99.90;;;;;;5033166;28;20221;-86
2023/10/09 13:45:32;;;;;;;3.97;1.23;;;19.30;99.90;;;;;;5040085;28;20184;-85
2023/10/09 13:48:04;;;;;;;5.20;1.70;;;19.20;99.90;;;;;;5051674;28;20201;-85
2023/10/09 13:50:42;;;;;;;5.25;1.60;;;19.20;99.90;;;;;;5031910;28;20221;-85
2023/10/09 13:53:14;;;;;;;6.05;1.70;;;19.30;99.90;;;;;;5046189;28;20245;-85
2023/10/09 13:55:47;;;;;;;4.90;1.35;;;19.30;99.90;;;;;;5032452;28;20292;-85
2023/10/09 13:58:20;;;;;;;8.00;1.67;;;19.30;99.90;;;;;;5050139;28;20489;-86
2023/10/09 14:00:53;;;;;;;5.15;1.38;;;19.20;99.90;;;;;;5056162;28;20184;-85
2023/10/09 14:03:27;;;;;;;4.78;1.60;;;19.30;99.90;;;;;;5056264;28;20275;-85
2023/10/09 14:06:10;;;;;;;7.22;1.50;;;19.30;99.90;;;;;;5056282;28;20193;-84
2023/10/09 14:08:42;;;;;;;8.32;1.80;;;19.30;99.90;;;;;;5055964;28;20204;-86
2023/10/09 14:11:15;;;;;;;7.07;1.55;;;19.30;99.90;;;;;;5048202;28;20271;-86
2023/10/09 14:13:48;;;;;;;5.60;1.30;;;19.30;99.90;;;;;;5045747;28;20255;-87
2023/10/09 14:16:27;;;;;;;9.07;1.85;;;19.30;99.90;;;;;;5055137;28;20612;-86
2023/10/09 14:19:00;;;;;;;5.75;1.30;;;19.30;99.90;;;;;;5055963;28;20204;-86
2023/10/09 14:21:33;;;;;;;5.25;1.48;;;19.30;99.90;;;;;;5054910;28;20228;-86
2023/10/09 14:24:15;;;;;;;6.93;1.52;;;19.30;99.90;;;;;;5048629;28;20279;-85
2023/10/09 14:26:51;;;;;;;6.75;1.55;;;19.30;99.90;;;;;;5055693;28;20704;-85
2023/10/09 14:29:26;;;;;;;11.05;2.28;;;19.30;99.90;;;;;;5055247;28;20196;-86
2023/10/09 14:32:02;;;;;;;10.25;2.38;;;19.40;99.90;;;;;;5056523;28;20228;-85
2023/10/09 14:34:36;;;;;;;9.95;2.72;;;19.30;99.90;;;;;;5055480;28;20192;-87
2023/10/09 14:37:07;;;;;;;11.80;2.95;;;19.30;99.90;;;;;;5055550;28;20672;-84
2023/10/09 14:39:38;;;;;;;10.02;2.92;;;19.30;99.90;;;;;;5054914;28;20193;-85
2023/10/09 14:42:12;;;;;;;11.45;3.38;;;19.30;99.90;;;;;;5057682;28;20227;-84